Time;durP1;ratioP1;P1;durP2;ratioP2;P2;SDS_P1;SDS_P2;PMS_P1;PMS_P2;Temp;Humidity;BMP_temperature;BMP_pressure;BME280_temperature;BME280_humidity;BME280_pressure;Samples;Min_cycle;Max_cycle;Signal;HPM_P1;HPM_P2
2024/03/11 00:01:44;;;;;;;21.17;13.95;;;;;;;;;;4994385;28;20014;-95
2024/03/11 00:04:09;;;;;;;20.83;12.68;;;;;;;;;;4994577;28;20046;-94
2024/03/11 00:06:35;;;;;;;18.67;12.57;;;;;;;;;;4994185;28;20476;-95
2024/03/11 00:09:03;;;;;;;19.00;12.48;;;;;;;;;;4994188;28;20477;-95
2024/03/11 00:11:28;;;;;;;16.65;12.02;;;;;;;;;;4994718;28;20041;-95
2024/03/11 00:13:54;;;;;;;16.20;12.07;;;;;;;;;;4994492;28;20385;-95
2024/03/11 00:16:20;;;;;;;17.88;11.10;;;;;;;;;;4994999;28;20030;-95
2024/03/11 00:18:45;;;;;;;16.65;11.82;;;;;;;;;;4993781;28;20069;-95
2024/03/11 00:21:11;;;;;;;15.05;11.20;;;;;;;;;;4993350;28;21369;-94
2024/03/11 00:23:37;;;;;;;16.30;11.20;;;;;;;;;;4995045;28;20029;-95
2024/03/11 00:26:03;;;;;;;16.95;12.07;;;;;;;;;;4994077;28;20392;-96
2024/03/11 00:28:29;;;;;;;16.23;11.10;;;;;;;;;;4993655;28;20049;-95
2024/03/11 00:30:55;;;;;;;17.23;11.48;;;;;;;;;;4993707;28;20034;-95
2024/03/11 00:33:20;;;;;;;17.00;11.43;;;;;;;;;;4993496;28;20018;-94
2024/03/11 00:35:46;;;;;;;17.77;12.10;;;;;;;;;;4993519;28;20031;-95
2024/03/11 00:38:11;;;;;;;17.83;12.27;;;;;;;;;;4993609;28;20049;-95
2024/03/11 00:40:37;;;;;;;26.10;16.75;;;;;;;;;;4993938;28;20062;-95
2024/03/11 00:43:02;;;;;;;32.85;19.83;;;;;;;;;;4993928;28;20025;-95
2024/03/11 00:45:28;;;;;;;29.70;18.55;;;;;;;;;;4993832;28;20162;-95
2024/03/11 00:47:55;;;;;;;33.05;22.13;;;;;;;;;;4993944;28;20025;-96
2024/03/11 00:50:20;;;;;;;30.55;20.40;;;;;;;;;;4993639;28;20288;-95
2024/03/11 00:52:47;;;;;;;34.90;22.08;;;;;;;;;;4993863;28;20220;-96
2024/03/11 00:55:12;;;;;;;36.65;22.50;;;;;;;;;;4993758;28;20026;-93
2024/03/11 00:57:38;;;;;;;37.15;21.85;;;;;;;;;;4993773;28;20161;-93
2024/03/11 01:00:04;;;;;;;33.58;22.38;;;;;;;;;;4993299;28;20380;-94
2024/03/11 01:02:32;;;;;;;36.10;22.58;;;;;;;;;;4993371;28;20026;-93
2024/03/11 01:04:57;;;;;;;36.55;21.98;;;;;;;;;;4993123;28;20022;-92
2024/03/11 01:07:25;;;;;;;30.77;20.70;;;;;;;;;;4994384;28;20022;-94
2024/03/11 01:09:50;;;;;;;32.08;20.95;;;;;;;;;;4994429;28;20097;-94
2024/03/11 01:12:15;;;;;;;32.20;21.20;;;;;;;;;;4992907;28;20125;-92
2024/03/11 01:14:40;;;;;;;32.65;20.90;;;;;;;;;;4993017;28;20032;-93
2024/03/11 01:17:06;;;;;;;31.05;21.15;;;;;;;;;;4994185;28;20065;-94
2024/03/11 01:19:31;;;;;;;31.05;21.00;;;;;;;;;;4994396;28;20018;-93
2024/03/11 01:21:58;;;;;;;32.90;21.58;;;;;;;;;;4992909;28;20058;-93
2024/03/11 01:24:24;;;;;;;34.63;21.98;;;;;;;;;;4993939;28;20021;-93
2024/03/11 01:26:49;;;;;;;31.75;22.23;;;;;;;;;;4993816;28;20026;-94
2024/03/11 01:29:15;;;;;;;34.03;20.90;;;;;;;;;;4993973;28;20052;-94
2024/03/11 01:31:42;;;;;;;33.92;21.98;;;;;;;;;;4993870;28;20022;-93
2024/03/11 01:34:07;;;;;;;36.08;23.33;;;;;;;;;;4992126;28;20019;-92
2024/03/11 01:36:36;;;;;;;34.63;22.13;;;;;;;;;;4993575;28;20053;-93
2024/03/11 01:39:01;;;;;;;34.22;22.17;;;;;;;;;;4992698;28;20026;-93
2024/03/11 01:41:28;;;;;;;35.25;22.95;;;;;;;;;;4992575;28;20113;-93
2024/03/11 01:43:53;;;;;;;33.33;22.95;;;;;;;;;;4993942;28;20149;-94
2024/03/11 01:46:19;;;;;;;36.22;23.40;;;;;;;;;;4992465;28;20112;-93
2024/03/11 01:48:44;;;;;;;42.60;24.45;;;;;;;;;;4992407;28;20022;-94
2024/03/11 01:51:09;;;;;;;38.17;24.27;;;;;;;;;;4992415;28;20521;-94
2024/03/11 01:53:35;;;;;;;37.83;22.98;;;;;;;;;;4993564;28;20023;-94
2024/03/11 01:56:01;;;;;;;44.92;27.75;;;;;;;;;;4992335;28;20032;-93
2024/03/11 01:58:29;;;;;;;44.25;25.77;;;;;;;;;;4992050;28;20088;-95
2024/03/11 02:00:55;;;;;;;41.40;24.90;;;;;;;;;;4993764;28;20052;-95
2024/03/11 02:03:20;;;;;;;39.83;23.98;;;;;;;;;;4992306;28;20014;-95
2024/03/11 02:05:45;;;;;;;40.08;24.30;;;;;;;;;;4992657;28;20468;-94
2024/03/11 02:08:10;;;;;;;43.78;26.52;;;;;;;;;;4992518;28;20022;-94
2024/03/11 02:10:36;;;;;;;45.63;25.05;;;;;;;;;;4993404;28;20034;-93
2024/03/11 02:13:02;;;;;;;41.30;25.67;;;;;;;;;;4992308;28;20101;-94
2024/03/11 02:15:27;;;;;;;46.28;26.90;;;;;;;;;;4993175;28;20036;-95
2024/03/11 02:17:55;;;;;;;42.55;24.05;;;;;;;;;;4992046;28;20440;-93
2024/03/11 02:20:21;;;;;;;41.80;23.70;;;;;;;;;;4992184;28;20029;-94
2024/03/11 02:22:52;;;;;;;51.20;29.02;;;;;;;;;;4991910;28;20026;-94
2024/03/11 02:25:21;;;;;;;41.83;25.67;;;;;;;;;;4992058;28;20019;-94
2024/03/11 02:27:47;;;;;;;46.03;25.98;;;;;;;;;;4992150;28;20375;-94
2024/03/11 02:30:15;;;;;;;45.55;27.08;;;;;;;;;;4992050;28;20030;-95
2024/03/11 02:32:40;;;;;;;48.90;27.60;;;;;;;;;;4991722;28;20023;-94
2024/03/11 02:35:07;;;;;;;48.95;26.17;;;;;;;;;;4992970;28;20093;-94
2024/03/11 02:37:33;;;;;;;44.00;26.73;;;;;;;;;;4991614;28;20176;-94
2024/03/11 02:39:58;;;;;;;47.00;27.20;;;;;;;;;;4991776;28;20022;-93
2024/03/11 02:42:25;;;;;;;45.03;27.30;;;;;;;;;;4992165;28;20038;-94
2024/03/11 02:44:50;;;;;;;49.13;28.80;;;;;;;;;;4994825;28;20065;-92
2024/03/11 02:47:16;;;;;;;51.28;28.88;;;;;;;;;;4996071;28;20256;-94
2024/03/11 02:49:41;;;;;;;50.05;28.90;;;;;;;;;;4995936;28;20018;-93
2024/03/11 02:52:09;;;;;;;46.50;26.87;;;;;;;;;;4995809;28;20018;-93
2024/03/11 02:54:37;;;;;;;45.42;26.45;;;;;;;;;;4996812;28;20260;-93
2024/03/11 02:57:02;;;;;;;53.72;28.40;;;;;;;;;;4995446;28;20027;-93
2024/03/11 02:59:27;;;;;;;50.20;26.75;;;;;;;;;;4995701;28;20022;-94
2024/03/11 03:01:53;;;;;;;46.83;27.75;;;;;;;;;;4995443;28;20125;-92
2024/03/11 03:04:21;;;;;;;47.85;27.90;;;;;;;;;;4995227;28;20038;-93
2024/03/11 03:06:46;;;;;;;50.35;27.02;;;;;;;;;;5028082;28;20057;-93
2024/03/11 03:09:12;;;;;;;50.08;28.38;;;;;;;;;;4995406;28;20054;-94
2024/03/11 03:11:40;;;;;;;50.22;29.08;;;;;;;;;;4995370;28;20018;-94
2024/03/11 03:14:06;;;;;;;47.70;26.25;;;;;;;;;;4995315;28;20076;-94
2024/03/11 03:16:32;;;;;;;48.65;26.85;;;;;;;;;;5027806;28;20042;-94
2024/03/11 03:18:57;;;;;;;45.80;26.33;;;;;;;;;;4995102;28;20019;-93
2024/03/11 03:21:22;;;;;;;44.30;26.90;;;;;;;;;;4994743;28;20019;-94
2024/03/11 03:23:47;;;;;;;41.15;24.55;;;;;;;;;;4995237;28;20534;-95
2024/03/11 03:26:13;;;;;;;45.10;24.75;;;;;;;;;;4994839;28;20018;-93
2024/03/11 03:28:38;;;;;;;43.55;26.10;;;;;;;;;;4995061;28;20085;-94
2024/03/11 03:31:04;;;;;;;42.90;25.63;;;;;;;;;;4994805;28;20025;-93
2024/03/11 03:33:30;;;;;;;39.35;24.75;;;;;;;;;;4994804;28;20049;-94
2024/03/11 03:35:55;;;;;;;43.92;25.02;;;;;;;;;;4994514;28;20088;-94
2024/03/11 03:38:20;;;;;;;43.50;25.70;;;;;;;;;;4994923;28;20088;-93
2024/03/11 03:40:46;;;;;;;44.95;24.67;;;;;;;;;;4994762;28;20026;-93
2024/03/11 03:43:11;;;;;;;45.13;25.25;;;;;;;;;;4994665;28;20014;-94
2024/03/11 03:45:36;;;;;;;41.50;22.90;;;;;;;;;;4994899;28;20109;-93
2024/03/11 03:48:02;;;;;;;42.35;25.38;;;;;;;;;;4995704;28;20423;-94
2024/03/11 03:50:27;;;;;;;41.17;24.65;;;;;;;;;;4993614;28;20058;-94
2024/03/11 03:52:53;;;;;;;40.50;24.25;;;;;;;;;;4994066;28;20042;-94
2024/03/11 03:55:18;;;;;;;40.00;25.10;;;;;;;;;;4993495;28;20081;-93
2024/03/11 03:57:44;;;;;;;41.17;24.27;;;;;;;;;;4994353;28;20493;-93
2024/03/11 04:00:16;;;;;;;45.10;24.98;;;;;;;;;;4994327;28;20556;-93
2024/03/11 04:02:51;;;;;;;45.83;25.55;;;;;;;;;;4994625;28;20029;-93
2024/03/11 04:05:17;;;;;;;41.97;24.55;;;;;;;;;;4994364;28;20428;-94
2024/03/11 04:07:43;;;;;;;46.70;26.20;;;;;;;;;;4994190;28;20054;-93
2024/03/11 04:10:12;;;;;;;46.42;26.83;;;;;;;;;;4994136;28;20021;-93
2024/03/11 04:12:38;;;;;;;51.03;28.55;;;;;;;;;;4994056;28;20026;-93
2024/03/11 04:15:04;;;;;;;52.45;28.42;;;;;;;;;;4994269;28;20495;-94
2024/03/11 04:17:32;;;;;;;54.25;28.77;;;;;;;;;;4993886;28;20435;-94
2024/03/11 04:19:57;;;;;;;55.92;28.63;;;;;;;;;;4994360;28;20014;-94
2024/03/11 04:22:23;;;;;;;54.17;28.48;;;;;;;;;;4994150;28;20441;-93
2024/03/11 04:24:48;;;;;;;58.58;28.58;;;;;;;;;;4995104;28;20027;-93
2024/03/11 04:27:14;;;;;;;65.13;34.08;;;;;;;;;;4993921;28;20397;-93
2024/03/11 04:29:39;;;;;;;65.13;33.88;;;;;;;;;;4993892;28;20077;-93
2024/03/11 04:32:06;;;;;;;71.40;35.20;;;;;;;;;;4993844;28;20018;-93
2024/03/11 04:34:32;;;;;;;72.07;36.60;;;;;;;;;;4993717;28;20022;-94
2024/03/11 04:36:58;;;;;;;76.10;35.90;;;;;;;;;;4995007;28;20487;-94
2024/03/11 04:39:23;;;;;;;81.35;35.97;;;;;;;;;;4993972;28;20022;-93
2024/03/11 04:41:48;;;;;;;83.37;39.90;;;;;;;;;;4993700;28;20019;-93
2024/03/11 04:44:14;;;;;;;87.00;39.25;;;;;;;;;;4993511;28;20282;-93
2024/03/11 04:46:39;;;;;;;91.15;40.38;;;;;;;;;;4994598;28;20018;-93
2024/03/11 04:49:07;;;;;;;85.28;37.05;;;;;;;;;;4993599;28;20393;-93
2024/03/11 04:51:32;;;;;;;85.70;38.67;;;;;;;;;;4993505;28;20366;-94
2024/03/11 04:53:58;;;;;;;87.97;38.88;;;;;;;;;;4993466;28;20029;-94
2024/03/11 04:56:23;;;;;;;78.72;38.17;;;;;;;;;;4993510;28;20620;-94
2024/03/11 04:58:48;;;;;;;80.80;38.10;;;;;;;;;;4993388;28;20023;-94
2024/03/11 05:01:14;;;;;;;81.53;37.83;;;;;;;;;;4993446;28;20033;-93
2024/03/11 05:03:39;;;;;;;84.45;38.70;;;;;;;;;;4994528;28;20334;-93
2024/03/11 05:06:04;;;;;;;82.13;38.63;;;;;;;;;;4992995;28;20053;-92
2024/03/11 05:08:29;;;;;;;80.63;38.97;;;;;;;;;;4993480;28;20248;-94
2024/03/11 05:10:54;;;;;;;82.37;37.53;;;;;;;;;;4994301;28;20101;-93
2024/03/11 05:13:21;;;;;;;89.20;38.17;;;;;;;;;;4993211;28;20302;-93
2024/03/11 05:15:49;;;;;;;87.40;39.70;;;;;;;;;;4993141;28;20030;-93
2024/03/11 05:18:15;;;;;;;79.80;36.50;;;;;;;;;;4993115;28;20437;-94
2024/03/11 05:20:40;;;;;;;87.00;39.92;;;;;;;;;;4993051;28;20050;-94
2024/03/11 05:23:06;;;;;;;80.40;38.30;;;;;;;;;;4993198;28;20462;-93
2024/03/11 05:25:31;;;;;;;80.18;37.58;;;;;;;;;;4993717;28;20081;-93
2024/03/11 05:27:58;;;;;;;91.05;37.88;;;;;;;;;;4992914;28;20022;-93
2024/03/11 05:30:24;;;;;;;84.90;38.33;;;;;;;;;;4993343;28;20106;-94
2024/03/11 05:32:49;;;;;;;77.55;37.10;;;;;;;;;;4992674;28;20050;-93
2024/03/11 05:35:14;;;;;;;77.40;36.67;;;;;;;;;;4992838;28;20034;-93
2024/03/11 05:37:40;;;;;;;69.53;34.33;;;;;;;;;;4992935;28;20018;-93
2024/03/11 05:40:05;;;;;;;80.10;36.95;;;;;;;;;;4993895;28;20026;-93
2024/03/11 05:42:32;;;;;;;69.00;34.78;;;;;;;;;;4992816;28;20026;-93
2024/03/11 05:44:58;;;;;;;73.80;35.88;;;;;;;;;;4992601;28;20109;-93
2024/03/11 05:47:25;;;;;;;67.47;33.65;;;;;;;;;;4992313;28;20022;-93
2024/03/11 05:49:51;;;;;;;86.40;35.05;;;;;;;;;;4992254;28;20117;-93
2024/03/11 05:52:17;;;;;;;69.60;35.17;;;;;;;;;;4992368;28;20449;-94
2024/03/11 05:54:50;;;;;;;78.32;34.33;;;;;;;;;;4992449;28;20025;-93
2024/03/11 05:57:22;;;;;;;68.38;33.20;;;;;;;;;;4993601;28;20026;-93
2024/03/11 05:59:47;;;;;;;76.57;35.80;;;;;;;;;;4993438;28;20015;-93
2024/03/11 06:02:13;;;;;;;83.45;35.88;;;;;;;;;;4993588;28;20064;-94
2024/03/11 06:04:38;;;;;;;76.45;36.67;;;;;;;;;;4992106;28;20105;-93
2024/03/11 06:07:03;;;;;;;80.45;36.05;;;;;;;;;;4992142;28;20487;-93
2024/03/11 06:09:28;;;;;;;75.10;35.08;;;;;;;;;;4992239;28;20023;-94
2024/03/11 06:11:54;;;;;;;69.20;34.30;;;;;;;;;;4991866;28;20164;-93
2024/03/11 06:14:19;;;;;;;81.53;38.38;;;;;;;;;;4991815;28;20056;-93
2024/03/11 06:16:45;;;;;;;82.32;36.55;;;;;;;;;;4993026;28;20146;-94
2024/03/11 06:19:11;;;;;;;78.75;37.40;;;;;;;;;;4991484;28;20490;-94
2024/03/11 06:21:37;;;;;;;63.70;32.33;;;;;;;;;;4992890;28;20887;-93
2024/03/11 06:24:02;;;;;;;65.38;34.72;;;;;;;;;;4992174;28;20134;-93
2024/03/11 06:26:28;;;;;;;75.03;35.50;;;;;;;;;;4991955;28;20030;-93
2024/03/11 06:28:55;;;;;;;71.70;34.03;;;;;;;;;;4991724;28;20460;-93
2024/03/11 06:31:21;;;;;;;73.43;34.28;;;;;;;;;;4991799;28;20027;-94
2024/03/11 06:33:47;;;;;;;70.00;34.60;;;;;;;;;;4992975;28;20097;-93
2024/03/11 06:36:14;;;;;;;67.35;33.20;;;;;;;;;;4991593;28;20476;-93
2024/03/11 06:38:40;;;;;;;67.97;33.97;;;;;;;;;;4991570;28;20069;-94
2024/03/11 06:41:05;;;;;;;70.78;32.42;;;;;;;;;;4991590;28;20025;-92
2024/03/11 06:43:32;;;;;;;69.32;33.13;;;;;;;;;;4991689;28;20050;-93
2024/03/11 06:45:57;;;;;;;61.40;31.92;;;;;;;;;;4991479;28;20052;-93
2024/03/11 06:48:23;;;;;;;65.93;32.63;;;;;;;;;;4992742;28;20061;-94
2024/03/11 06:50:49;;;;;;;67.35;34.50;;;;;;;;;;4991659;28;20464;-93
2024/03/11 06:53:14;;;;;;;70.30;34.67;;;;;;;;;;4991753;28;20113;-93
2024/03/11 06:55:39;;;;;;;65.72;33.15;;;;;;;;;;4992566;28;20100;-94
2024/03/11 06:58:05;;;;;;;65.20;31.65;;;;;;;;;;4991827;28;20026;-94
2024/03/11 07:00:30;;;;;;;66.03;32.75;;;;;;;;;;4991690;28;20032;-94
2024/03/11 07:02:56;;;;;;;64.35;32.15;;;;;;;;;;4991702;28;20049;-93
2024/03/11 07:05:26;;;;;;;62.72;32.65;;;;;;;;;;4991641;28;20026;-93
2024/03/11 07:07:51;;;;;;;69.22;32.47;;;;;;;;;;4991675;28;20524;-94
2024/03/11 07:10:17;;;;;;;65.90;32.28;;;;;;;;;;4992659;28;20022;-94
2024/03/11 07:12:42;;;;;;;66.13;33.80;;;;;;;;;;4991467;28;20076;-94
2024/03/11 07:15:09;;;;;;;61.28;32.58;;;;;;;;;;4991419;28;20029;-93
2024/03/11 07:17:34;;;;;;;63.03;32.78;;;;;;;;;;4991804;28;20019;-93
2024/03/11 07:19:59;;;;;;;57.25;32.13;;;;;;;;;;4991307;28;20365;-93
2024/03/11 07:22:24;;;;;;;64.00;33.03;;;;;;;;;;5024192;28;20034;-94
2024/03/11 07:24:50;;;;;;;59.75;32.33;;;;;;;;;;4991811;28;20058;-93
2024/03/11 07:27:16;;;;;;;60.53;31.33;;;;;;;;;;4991308;28;20025;-93
2024/03/11 07:29:41;;;;;;;62.10;31.70;;;;;;;;;;4991215;28;20050;-93
2024/03/11 07:32:07;;;;;;;64.60;29.23;;;;;;;;;;4995458;28;20137;-93
2024/03/11 07:34:32;;;;;;;61.28;30.70;;;;;;;;;;4996303;28;20357;-93
2024/03/11 07:36:57;;;;;;;61.17;30.73;;;;;;;;;;4996304;28;20027;-94
2024/03/11 07:39:24;;;;;;;56.42;29.63;;;;;;;;;;4996186;28;20022;-93
2024/03/11 07:41:49;;;;;;;60.97;31.95;;;;;;;;;;4994960;28;20073;-94
2024/03/11 07:44:15;;;;;;;58.17;31.35;;;;;;;;;;4996160;28;20388;-93
2024/03/11 07:46:40;;;;;;;64.75;31.70;;;;;;;;;;4994538;28;20033;-93
2024/03/11 07:49:11;;;;;;;56.78;29.48;;;;;;;;;;4995030;28;20022;-92
2024/03/11 07:51:36;;;;;;;58.17;30.55;;;;;;;;;;4994966;28;20029;-93
2024/03/11 07:54:01;;;;;;;55.95;28.58;;;;;;;;;;4994595;28;20022;-93
2024/03/11 07:56:26;;;;;;;57.63;30.42;;;;;;;;;;4994443;28;20034;-92
2024/03/11 07:58:52;;;;;;;64.95;30.20;;;;;;;;;;4994565;28;20121;-93
2024/03/11 08:01:19;;;;;;;53.85;28.52;;;;;;;;;;4995831;28;20022;-93
2024/03/11 08:03:44;;;;;;;54.30;30.65;;;;;;;;;;4994207;28;20027;-93
2024/03/11 08:06:10;;;;;;;56.30;30.42;;;;;;;;;;4995679;28;20018;-93
2024/03/11 08:08:35;;;;;;;58.53;30.48;;;;;;;;;;4994556;28;20026;-93
2024/03/11 08:11:02;;;;;;;59.25;29.63;;;;;;;;;;5027032;28;20073;-93
2024/03/11 08:13:27;;;;;;;57.28;28.77;;;;;;;;;;4994344;28;20110;-93
2024/03/11 08:15:52;;;;;;;50.67;27.52;;;;;;;;;;4995101;28;20175;-93
2024/03/11 08:18:19;;;;;;;52.80;28.88;;;;;;;;;;4994028;28;20014;-94
2024/03/11 08:20:44;;;;;;;69.63;28.60;;;;;;;;;;4993962;28;20053;-94
2024/03/11 08:23:10;;;;;;;55.42;30.52;;;;;;;;;;4993907;28;20049;-93
2024/03/11 08:25:35;;;;;;;55.10;31.17;;;;;;;;;;4994010;28;20053;-94
2024/03/11 08:28:00;;;;;;;56.75;30.63;;;;;;;;;;4993690;28;20011;-93
2024/03/11 08:30:27;;;;;;;53.15;29.23;;;;;;;;;;4994014;28;20042;-94
2024/03/11 08:32:52;;;;;;;50.65;26.40;;;;;;;;;;4993921;28;20019;-93
2024/03/11 08:35:21;;;;;;;49.38;28.38;;;;;;;;;;4993646;28;20359;-95
2024/03/11 08:37:46;;;;;;;53.13;28.77;;;;;;;;;;4993656;28;20030;-92
2024/03/11 08:40:14;;;;;;;52.75;28.15;;;;;;;;;;4993890;28;20473;-94
2024/03/11 08:42:40;;;;;;;51.53;28.33;;;;;;;;;;4994631;28;20018;-93
2024/03/11 08:45:06;;;;;;;56.92;28.60;;;;;;;;;;4999408;28;20026;-96
2024/03/11 08:47:31;;;;;;;55.13;29.73;;;;;;;;;;4994438;28;20024;-94
2024/03/11 08:49:58;;;;;;;56.30;29.92;;;;;;;;;;4994860;28;20461;-94
2024/03/11 08:52:24;;;;;;;60.83;29.23;;;;;;;;;;4993494;28;20064;-94
2024/03/11 08:54:50;;;;;;;47.30;25.83;;;;;;;;;;4994539;28;20489;-94
2024/03/11 08:57:16;;;;;;;50.97;27.33;;;;;;;;;;4993219;28;20034;-93
2024/03/11 08:59:41;;;;;;;47.00;26.67;;;;;;;;;;4993520;28;20034;-94
2024/03/11 09:02:07;;;;;;;50.88;27.25;;;;;;;;;;4994709;28;20106;-94
2024/03/11 09:04:33;;;;;;;50.70;27.17;;;;;;;;;;4993488;28;20061;-94
2024/03/11 09:06:58;;;;;;;48.10;25.00;;;;;;;;;;4994224;28;20393;-94
2024/03/11 09:09:27;;;;;;;59.42;27.02;;;;;;;;;;4993110;28;20060;-94
2024/03/11 09:12:00;;;;;;;52.53;28.58;;;;;;;;;;4994470;28;20465;-95
2024/03/11 09:14:26;;;;;;;49.20;26.13;;;;;;;;;;4993301;28;20037;-94
2024/03/11 09:16:52;;;;;;;52.55;27.13;;;;;;;;;;4992990;28;20069;-94
2024/03/11 09:19:19;;;;;;;46.55;26.63;;;;;;;;;;4992954;28;20411;-94
2024/03/11 09:21:46;;;;;;;49.00;26.75;;;;;;;;;;4992747;28;20029;-94
2024/03/11 09:24:11;;;;;;;46.28;25.17;;;;;;;;;;4992924;28;20026;-93
2024/03/11 09:26:38;;;;;;;42.90;24.95;;;;;;;;;;4993045;28;20499;-94
2024/03/11 09:29:03;;;;;;;47.75;25.42;;;;;;;;;;4992959;28;20030;-95
2024/03/11 09:31:29;;;;;;;46.70;24.67;;;;;;;;;;4994124;28;20021;-94
2024/03/11 09:33:54;;;;;;;43.70;24.33;;;;;;;;;;4992827;28;20031;-94
2024/03/11 09:36:19;;;;;;;45.75;26.42;;;;;;;;;;4992837;28;20042;-94
2024/03/11 09:38:45;;;;;;;42.17;24.13;;;;;;;;;;4993030;28;20028;-95
2024/03/11 09:41:14;;;;;;;42.97;23.10;;;;;;;;;;4992808;28;20018;-94
2024/03/11 09:43:41;;;;;;;37.17;23.17;;;;;;;;;;4994056;28;20018;-95
2024/03/11 09:46:07;;;;;;;42.47;25.65;;;;;;;;;;4992478;28;20591;-93
2024/03/11 09:48:33;;;;;;;42.00;25.17;;;;;;;;;;4993648;28;20018;-93
2024/03/11 09:50:58;;;;;;;44.22;23.45;;;;;;;;;;4992432;28;20026;-94
2024/03/11 09:53:25;;;;;;;49.25;24.48;;;;;;;;;;4992177;28;20372;-93
2024/03/11 09:55:54;;;;;;;46.13;25.55;;;;;;;;;;4992260;28;20053;-94
2024/03/11 09:58:20;;;;;;;46.55;25.80;;;;;;;;;;4992527;28;20113;-94
2024/03/11 10:00:49;;;;;;;50.67;28.77;;;;;;;;;;4976611;28;20061;-94
2024/03/11 10:03:15;;;;;;;47.95;26.77;;;;;;;;;;4996625;28;20021;-95
2024/03/11 10:05:40;;;;;;;45.83;25.88;;;;;;;;;;4992835;28;20026;-94
2024/03/11 10:08:06;;;;;;;44.75;24.70;;;;;;;;;;4993486;28;20053;-95
2024/03/11 10:10:32;;;;;;;45.60;25.02;;;;;;;;;;4993396;28;20026;-94
2024/03/11 10:13:04;;;;;;;46.47;24.63;;;;;;;;;;4992353;28;20026;-94
2024/03/11 10:15:30;;;;;;;43.03;24.02;;;;;;;;;;4991921;28;20493;-93
2024/03/11 10:17:58;;;;;;;47.75;24.83;;;;;;;;;;4992006;28;20033;-93
2024/03/11 10:20:24;;;;;;;41.63;23.30;;;;;;;;;;4992221;28;20092;-94
2024/03/11 10:22:49;;;;;;;44.50;24.48;;;;;;;;;;4991992;28;20484;-94
2024/03/11 10:25:22;;;;;;;45.00;23.73;;;;;;;;;;4992063;28;20023;-95
2024/03/11 10:27:47;;;;;;;41.03;22.58;;;;;;;;;;4991838;28;20468;-94
2024/03/11 10:30:23;;;;;;;41.45;24.40;;;;;;;;;;4991887;28;20034;-94
2024/03/11 10:33:01;;;;;;;43.38;23.02;;;;;;;;;;4993125;28;20488;-94
2024/03/11 10:35:27;;;;;;;41.90;23.45;;;;;;;;;;4991801;28;20026;-94
2024/03/11 10:38:05;;;;;;;36.72;22.02;;;;;;;;;;4993128;28;20358;-94
2024/03/11 10:40:31;;;;;;;41.95;23.48;;;;;;;;;;4991767;28;20472;-94
2024/03/11 10:42:58;;;;;;;45.40;23.00;;;;;;;;;;4991531;28;20022;-93
2024/03/11 10:45:33;;;;;;;37.83;22.67;;;;;;;;;;4991559;28;20027;-94
2024/03/11 10:48:02;;;;;;;35.25;21.08;;;;;;;;;;4991607;28;20014;-94
2024/03/11 10:50:32;;;;;;;36.95;24.50;;;;;;;;;;4992832;28;20031;-94
2024/03/11 10:52:58;;;;;;;36.53;23.15;;;;;;;;;;4991652;28;20046;-94
2024/03/11 10:55:32;;;;;;;39.42;21.98;;;;;;;;;;4992589;28;20112;-94
2024/03/11 10:57:59;;;;;;;37.28;22.00;;;;;;;;;;4991671;28;20025;-94
2024/03/11 11:00:26;;;;;;;36.80;21.98;;;;;;;;;;4992766;28;20024;-94
2024/03/11 11:03:08;;;;;;;37.47;21.35;;;;;;;;;;4991606;28;20018;-94
2024/03/11 11:05:33;;;;;;;;;;;;;;;;;;4993988;28;20029;-95
2024/03/11 11:08:02;;;;;;;37.00;21.43;;;;;;;;;;4995234;28;19906;-94
2024/03/11 11:10:29;;;;;;;36.28;21.27;;;;;;;;;;4996403;28;20018;-94
2024/03/11 11:12:54;;;;;;;34.70;20.13;;;;;;;;;;4995242;28;20550;-94
2024/03/11 11:15:20;;;;;;;31.92;21.00;;;;;;;;;;4996281;28;20026;-94
2024/03/11 11:17:47;;;;;;;36.17;21.00;;;;;;;;;;4995266;28;20033;-94
2024/03/11 11:20:37;;;;;;;31.70;20.27;;;;;;;;;;4995166;28;20096;-94
2024/03/11 11:23:05;;;;;;;32.45;20.23;;;;;;;;;;4994769;28;20473;-94
2024/03/11 11:25:42;;;;;;;35.08;20.52;;;;;;;;;;4995055;28;20026;-94
2024/03/11 11:28:13;;;;;;;30.17;19.77;;;;;;;;;;4995268;28;20019;-94
2024/03/11 11:30:39;;;;;;;32.13;19.60;;;;;;;;;;4994679;28;20019;-94
2024/03/11 11:33:07;;;;;;;33.53;19.88;;;;;;;;;;4994985;28;20446;-94
2024/03/11 11:35:33;;;;;;;31.55;19.50;;;;;;;;;;4994838;28;20037;-94
2024/03/11 11:38:19;;;;;;;32.10;19.55;;;;;;;;;;4995029;28;20019;-94
2024/03/11 11:40:44;;;;;;;30.58;18.92;;;;;;;;;;4994847;28;20031;-95
2024/03/11 11:43:20;;;;;;;32.28;19.98;;;;;;;;;;4994843;28;20486;-94
2024/03/11 11:45:55;;;;;;;32.53;19.17;;;;;;;;;;4994907;28;20018;-94
2024/03/11 11:48:28;;;;;;;31.13;19.45;;;;;;;;;;4994981;28;20638;-94
2024/03/11 11:51:03;;;;;;;29.08;19.17;;;;;;;;;;4994909;28;20018;-95
2024/03/11 11:53:29;;;;;;;30.15;19.27;;;;;;;;;;4994798;28;20022;-95
2024/03/11 11:55:56;;;;;;;31.77;20.13;;;;;;;;;;4995552;28;20034;-94
2024/03/11 11:58:22;;;;;;;31.73;18.77;;;;;;;;;;4994590;28;20522;-94
2024/03/11 12:00:56;;;;;;;35.10;20.52;;;;;;;;;;4994873;28;20117;-94
2024/03/11 12:03:30;;;;;;;35.40;19.17;;;;;;;;;;4995780;28;20022;-93
2024/03/11 12:06:01;;;;;;;31.67;19.25;;;;;;;;;;4994512;28;20068;-94
2024/03/11 12:08:27;;;;;;;27.30;17.50;;;;;;;;;;4994573;28;20025;-94
2024/03/11 12:11:10;;;;;;;32.20;17.27;;;;;;;;;;4994628;28;20026;-95
2024/03/11 12:13:35;;;;;;;29.95;17.35;;;;;;;;;;4994476;28;20263;-94
2024/03/11 12:16:10;;;;;;;27.17;18.40;;;;;;;;;;4994968;28;20030;-94
2024/03/11 12:18:39;;;;;;;33.65;18.33;;;;;;;;;;4994415;28;20029;-93
2024/03/11 12:21:13;;;;;;;28.02;17.02;;;;;;;;;;4994080;28;20494;-95
2024/03/11 12:23:38;;;;;;;26.10;17.00;;;;;;;;;;4995225;28;20529;-95
2024/03/11 12:26:06;;;;;;;27.48;16.90;;;;;;;;;;4994223;28;20014;-95
2024/03/11 12:28:32;;;;;;;32.78;20.35;;;;;;;;;;4994216;28;20042;-94
2024/03/11 12:30:57;;;;;;;30.52;17.58;;;;;;;;;;4995219;28;20022;-95
2024/03/11 12:33:23;;;;;;;30.05;18.73;;;;;;;;;;4995162;28;20026;-94
2024/03/11 12:35:50;;;;;;;27.98;16.42;;;;;;;;;;4993994;28;20112;-94
2024/03/11 12:38:16;;;;;;;25.95;16.50;;;;;;;;;;4994098;28;20028;-94
2024/03/11 12:40:43;;;;;;;25.60;16.33;;;;;;;;;;4994463;28;20101;-93
2024/03/11 12:43:27;;;;;;;21.90;15.30;;;;;;;;;;4993680;28;20472;-94
2024/03/11 12:45:57;;;;;;;27.58;16.63;;;;;;;;;;4993907;28;20053;-94
2024/03/11 12:48:23;;;;;;;27.25;18.05;;;;;;;;;;4993881;28;20118;-94
2024/03/11 12:50:52;;;;;;;24.95;15.95;;;;;;;;;;4993867;28;20034;-94
2024/03/11 12:53:18;;;;;;;25.33;15.85;;;;;;;;;;4993711;28;20022;-94
2024/03/11 12:55:44;;;;;;;26.35;16.27;;;;;;;;;;4993204;28;20038;-95
2024/03/11 12:58:14;;;;;;;28.48;16.67;;;;;;;;;;4993558;28;20076;-95
2024/03/11 13:00:40;;;;;;;24.60;15.30;;;;;;;;;;4993623;28;20031;-95
2024/03/11 13:03:11;;;;;;;26.20;16.27;;;;;;;;;;4993584;28;20014;-94
2024/03/11 13:05:37;;;;;;;27.23;15.82;;;;;;;;;;4993527;28;20122;-94
2024/03/11 13:08:04;;;;;;;28.42;15.60;;;;;;;;;;4993628;28;20381;-94
2024/03/11 13:10:29;;;;;;;22.65;14.70;;;;;;;;;;4993419;28;20027;-96
2024/03/11 13:12:54;;;;;;;22.20;14.63;;;;;;;;;;4993200;28;20019;-94
2024/03/11 13:15:19;;;;;;;22.45;14.88;;;;;;;;;;4993804;28;20500;-93
2024/03/11 13:17:47;;;;;;;22.33;14.90;;;;;;;;;;4995147;28;20030;-95
2024/03/11 13:20:25;;;;;;;23.35;15.32;;;;;;;;;;4993082;28;20018;-94
2024/03/11 13:22:56;;;;;;;22.20;14.13;;;;;;;;;;4994090;28;20030;-94
2024/03/11 13:25:25;;;;;;;22.58;13.50;;;;;;;;;;4993051;28;20435;-95
2024/03/11 13:27:51;;;;;;;23.70;14.48;;;;;;;;;;4992762;28;20564;-95
2024/03/11 13:30:16;;;;;;;24.77;14.38;;;;;;;;;;4992764;28;20113;-95
2024/03/11 13:32:41;;;;;;;22.88;14.43;;;;;;;;;;4992950;28;20018;-95
2024/03/11 13:35:07;;;;;;;28.58;14.25;;;;;;;;;;4993015;28;20125;-95
2024/03/11 13:37:33;;;;;;;21.95;13.95;;;;;;;;;;4992748;28;20484;-95
2024/03/11 13:39:58;;;;;;;21.80;14.40;;;;;;;;;;4992556;28;20024;-95
2024/03/11 13:42:23;;;;;;;19.33;13.13;;;;;;;;;;4993028;28;20022;-95
2024/03/11 13:44:49;;;;;;;21.08;13.70;;;;;;;;;;4993853;28;20101;-94
2024/03/11 13:47:14;;;;;;;19.17;13.18;;;;;;;;;;4992783;28;20021;-94
2024/03/11 13:49:40;;;;;;;22.20;13.80;;;;;;;;;;4992925;28;20096;-95
2024/03/11 13:52:08;;;;;;;18.50;12.60;;;;;;;;;;4992549;28;20318;-94
2024/03/11 13:54:33;;;;;;;19.38;12.90;;;;;;;;;;4993781;28;20018;-94
2024/03/11 13:57:00;;;;;;;19.70;12.68;;;;;;;;;;4992290;28;20088;-95
2024/03/11 13:59:25;;;;;;;21.45;13.05;;;;;;;;;;4992619;28;20021;-95
2024/03/11 14:01:52;;;;;;;19.83;12.35;;;;;;;;;;4992642;28;20023;-94
2024/03/11 14:04:17;;;;;;;21.13;12.85;;;;;;;;;;4992357;28;20089;-95
2024/03/11 14:06:43;;;;;;;16.15;11.68;;;;;;;;;;4992273;28;20476;-94
2024/03/11 14:09:11;;;;;;;20.45;13.25;;;;;;;;;;4993253;28;20213;-95
2024/03/11 14:11:42;;;;;;;20.98;12.57;;;;;;;;;;4992166;28;20033;-94
2024/03/11 14:14:08;;;;;;;20.38;12.73;;;;;;;;;;4992126;28;20033;-95
2024/03/11 14:16:37;;;;;;;20.50;12.40;;;;;;;;;;4992308;28;20034;-95